Terminal Aerodrome Forecast
Issued by NWS Detroit/Pontiac, MI

Home | Current Version | Previous Version | Text Only | Print | Product List | Glossary On
Versions: 1 2 3 4 5 6 7 8 9 10 11 12 13 14 15 16 17
000
FTUS43 KDTX 291120
TAFFNT
TAF
KFNT 291120Z 2912/3012 20007KT P6SM SCT045 BKN200
     FM291500 21011KT P6SM SCT050 BKN250
     FM291700 22013G21KT P6SM BKN060
      TEMPO 2918/2922 4SM TSRA SCT035CB BKN050
     FM300000 27010KT P6SM SCT060 BKN200
     FM300200 26005KT P6SM SKC=

USA.gov is the U.S. government's official web portal to all federal, state and local government web resources and services.